Time;durP1;ratioP1;P1;durP2;ratioP2;P2;SDS_P1;SDS_P2;PMS_P1;PMS_P2;Temp;Humidity;BMP_temperature;BMP_pressure;BME280_temperature;BME280_humidity;BME280_pressure;Samples;Min_cycle;Max_cycle;Signal;HPM_P1;HPM_P2
2023/06/06 00:00:37;;;;;;;14.63;9.63;;;15.10;31.00;;;;;;5054478;28;20216;-81
2023/06/06 00:03:03;;;;;;;13.27;9.03;;;15.00;33.40;;;;;;5054290;28;20191;-80
2023/06/06 00:05:29;;;;;;;14.33;9.60;;;15.00;36.10;;;;;;5053577;28;20270;-80
2023/06/06 00:07:56;;;;;;;14.23;9.50;;;14.90;39.30;;;;;;5052565;28;20594;-82
2023/06/06 00:10:22;;;;;;;12.80;9.10;;;15.00;40.20;;;;;;5036010;28;20176;-80
2023/06/06 00:12:47;;;;;;;13.50;8.93;;;15.00;38.90;;;;;;5053916;28;20540;-82
2023/06/06 00:15:15;;;;;;;14.73;9.77;;;14.90;38.90;;;;;;5054049;28;20229;-80
2023/06/06 00:17:42;;;;;;;13.57;9.50;;;14.90;40.00;;;;;;5035876;28;20216;-78
2023/06/06 00:20:11;;;;;;;14.47;9.33;;;14.80;42.60;;;;;;5053114;28;20253;-80
2023/06/06 00:22:37;;;;;;;13.47;9.87;;;14.80;43.50;;;;;;5053520;28;20176;-82
2023/06/06 00:25:04;;;;;;;12.33;9.57;;;14.80;43.00;;;;;;5053717;28;20226;-81
2023/06/06 00:27:31;;;;;;;12.13;8.97;;;14.70;45.30;;;;;;5053333;28;20186;-80
2023/06/06 00:29:57;;;;;;;12.47;9.53;;;14.70;45.80;;;;;;5053683;28;20176;-82
2023/06/06 00:32:23;;;;;;;12.00;9.10;;;14.70;45.00;;;;;;5053009;28;20535;-81
2023/06/06 00:34:48;;;;;;;13.03;8.70;;;14.60;46.60;;;;;;5053134;28;20530;-79
2023/06/06 00:37:15;;;;;;;14.23;8.97;;;14.50;48.00;;;;;;5053289;28;20580;-81
2023/06/06 00:39:40;;;;;;;12.03;8.73;;;14.50;50.80;;;;;;5052791;28;20194;-82
2023/06/06 00:42:06;;;;;;;13.40;9.47;;;14.50;52.20;;;;;;5053345;28;20211;-82
2023/06/06 00:44:32;;;;;;;13.80;9.43;;;14.50;52.00;;;;;;5035571;28;20205;-81
2023/06/06 00:46:58;;;;;;;14.07;9.30;;;14.50;50.30;;;;;;5052369;28;20246;-81
2023/06/06 00:49:24;;;;;;;14.07;8.10;;;14.50;51.50;;;;;;5053256;28;20634;-80
2023/06/06 00:51:50;;;;;;;11.03;8.73;;;14.40;52.20;;;;;;5053223;28;20673;-81
2023/06/06 00:54:18;;;;;;;11.87;8.83;;;14.40;54.60;;;;;;5034878;28;20267;-81
2023/06/06 00:56:45;;;;;;;12.47;9.53;;;14.40;56.00;;;;;;5035067;28;20641;-80
2023/06/06 00:59:12;;;;;;;13.37;9.57;;;14.30;56.10;;;;;;5034270;28;20284;-81
2023/06/06 01:01:39;;;;;;;13.30;9.83;;;14.30;59.20;;;;;;5052947;28;20737;-80
2023/06/06 01:04:08;;;;;;;13.37;9.57;;;14.20;60.80;;;;;;5035258;28;20186;-82
2023/06/06 01:06:37;;;;;;;13.87;9.67;;;14.20;59.70;;;;;;5034992;28;20236;-82
2023/06/06 01:09:07;;;;;;;13.90;9.60;;;14.10;60.10;;;;;;5052705;28;20823;-80
2023/06/06 01:12:09;;;;;;;13.63;9.80;;;14.10;61.90;;;;;;5035832;28;20169;-80
2023/06/06 01:14:50;;;;;;;12.03;8.80;;;14.00;65.50;;;;;;5052666;28;20165;-82
2023/06/06 01:17:18;;;;;;;12.60;8.17;;;14.00;66.10;;;;;;5053151;28;20523;-78
2023/06/06 01:19:48;;;;;;;14.27;9.70;;;14.10;63.60;;;;;;5034648;28;20190;-82
2023/06/06 01:22:17;;;;;;;13.43;9.97;;;14.00;63.90;;;;;;5052141;28;20186;-81
2023/06/06 01:24:46;;;;;;;14.07;9.97;;;13.90;68.00;;;;;;5034837;28;20173;-80
2023/06/06 01:27:12;;;;;;;14.30;9.30;;;13.90;69.90;;;;;;5052463;28;20177;-79
2023/06/06 01:29:38;;;;;;;13.83;9.83;;;14.00;68.80;;;;;;5052693;28;20273;-78
2023/06/06 01:32:30;;;;;;;13.27;9.07;;;13.90;66.50;;;;;;5050856;28;20158;-79
2023/06/06 01:35:23;;;;;;;13.50;10.00;;;13.90;69.00;;;;;;5052514;28;20172;-81
2023/06/06 01:37:56;;;;;;;13.77;9.93;;;13.90;70.00;;;;;;5053011;28;20165;-79
2023/06/06 01:40:24;;;;;;;16.23;9.87;;;13.90;68.50;;;;;;5035027;28;20678;-80
2023/06/06 01:42:50;;;;;;;15.80;9.63;;;13.90;70.60;;;;;;5035183;28;20169;-80
2023/06/06 01:45:20;;;;;;;15.17;10.77;;;13.90;69.40;;;;;;5052493;28;20658;-81
2023/06/06 01:47:47;;;;;;;15.63;10.03;;;14.00;72.40;;;;;;5034689;28;20178;-81
2023/06/06 01:50:13;;;;;;;13.47;10.13;;;13.90;70.00;;;;;;5051823;28;20179;-81
2023/06/06 01:52:39;;;;;;;15.63;10.47;;;13.90;67.40;;;;;;5052608;28;20249;-80
2023/06/06 01:55:07;;;;;;;15.27;10.40;;;13.80;67.60;;;;;;5052471;28;20171;-80
2023/06/06 01:57:33;;;;;;;14.40;9.53;;;13.80;69.90;;;;;;5034733;28;20180;-80
2023/06/06 02:00:00;;;;;;;15.40;10.60;;;13.70;71.30;;;;;;5034328;28;20189;-80
2023/06/06 02:02:27;;;;;;;16.63;10.57;;;13.70;74.10;;;;;;5052346;28;20161;-81
2023/06/06 02:04:53;;;;;;;17.53;11.23;;;13.60;78.60;;;;;;5034846;28;20165;-80
2023/06/06 02:07:19;;;;;;;15.60;10.73;;;13.60;78.40;;;;;;5052833;28;20170;-80
2023/06/06 02:09:44;;;;;;;13.53;9.80;;;13.60;80.00;;;;;;5034096;28;20323;-80
2023/06/06 02:12:11;;;;;;;14.87;10.53;;;13.60;79.10;;;;;;5034882;28;20169;-81
2023/06/06 02:14:37;;;;;;;15.57;10.87;;;13.60;79.40;;;;;;5034690;28;20178;-81
2023/06/06 02:17:03;;;;;;;14.00;11.10;;;13.70;77.40;;;;;;5052167;28;20174;-81
2023/06/06 02:19:31;;;;;;;17.07;11.60;;;13.60;79.80;;;;;;5033896;28;20204;-81
2023/06/06 02:21:57;;;;;;;15.83;10.50;;;13.60;81.40;;;;;;5051117;28;20221;-82
2023/06/06 02:24:27;;;;;;;17.60;10.77;;;13.60;76.60;;;;;;5052457;28;20186;-81
2023/06/06 02:26:53;;;;;;;17.67;11.10;;;13.50;81.30;;;;;;5034697;28;20221;-80
2023/06/06 02:29:22;;;;;;;16.90;11.93;;;13.40;83.60;;;;;;5033808;28;20174;-82
2023/06/06 02:31:49;;;;;;;14.73;10.30;;;13.50;85.20;;;;;;5054596;28;20180;-81
2023/06/06 02:34:15;;;;;;;14.83;11.03;;;13.40;86.10;;;;;;5055651;28;20170;-81
2023/06/06 02:36:41;;;;;;;14.87;10.50;;;13.50;87.20;;;;;;5056232;28;20170;-82
2023/06/06 02:39:08;;;;;;;16.03;11.23;;;13.30;87.10;;;;;;5055310;28;20173;-81
2023/06/06 02:41:33;;;;;;;15.70;10.67;;;13.40;87.70;;;;;;5038044;28;20551;-80
2023/06/06 02:43:59;;;;;;;16.50;11.03;;;13.30;89.40;;;;;;5056168;28;20170;-81
2023/06/06 02:46:25;;;;;;;14.87;9.90;;;13.40;88.40;;;;;;5054790;28;20178;-80
2023/06/06 02:48:52;;;;;;;15.87;10.47;;;13.40;85.80;;;;;;5037657;28;20427;-80
2023/06/06 02:51:22;;;;;;;15.50;11.00;;;13.40;85.60;;;;;;5055374;28;20176;-80
2023/06/06 02:53:49;;;;;;;18.27;11.40;;;13.40;87.60;;;;;;5042205;28;20172;-80
2023/06/06 02:56:16;;;;;;;14.70;9.97;;;13.30;87.70;;;;;;5059718;28;20161;-79
2023/06/06 02:58:42;;;;;;;16.07;10.63;;;13.30;87.90;;;;;;5057571;28;20165;-80
2023/06/06 03:01:12;;;;;;;13.10;10.30;;;13.20;88.40;;;;;;5056621;28;20216;-80
2023/06/06 03:03:38;;;;;;;14.33;10.17;;;13.20;90.50;;;;;;5047152;28;20177;-79
2023/06/06 03:06:07;;;;;;;13.27;10.27;;;13.20;91.00;;;;;;5048807;28;20169;-80
2023/06/06 03:08:33;;;;;;;14.57;10.90;;;13.10;90.40;;;;;;5073249;28;20158;-79
2023/06/06 03:10:59;;;;;;;16.53;10.93;;;13.10;91.30;;;;;;5072287;28;20209;-80
2023/06/06 03:13:30;;;;;;;13.90;10.53;;;13.10;91.80;;;;;;5065215;28;20195;-80
2023/06/06 03:15:57;;;;;;;14.07;10.47;;;13.00;93.10;;;;;;5075031;28;20173;-79
2023/06/06 03:18:24;;;;;;;15.87;10.80;;;13.00;94.00;;;;;;5075341;28;20158;-81
2023/06/06 03:20:53;;;;;;;14.27;10.97;;;13.00;94.30;;;;;;5043306;28;20262;-81
2023/06/06 03:23:21;;;;;;;16.60;11.27;;;13.00;94.20;;;;;;5041336;28;20180;-80
2023/06/06 03:25:51;;;;;;;13.30;10.67;;;13.00;94.10;;;;;;5072566;28;20165;-78
2023/06/06 03:28:18;;;;;;;14.53;9.57;;;13.00;93.70;;;;;;5058323;28;20205;-80
2023/06/06 03:30:45;;;;;;;16.30;11.30;;;13.00;93.30;;;;;;5064701;28;20181;-81
2023/06/06 03:33:11;;;;;;;16.23;11.20;;;13.00;95.10;;;;;;5055840;28;20169;-80
2023/06/06 03:35:37;;;;;;;16.30;10.03;;;12.90;94.70;;;;;;5070521;28;20185;-80
2023/06/06 03:38:06;;;;;;;16.47;10.87;;;13.00;94.60;;;;;;5067299;28;20636;-80
2023/06/06 03:40:34;;;;;;;16.27;11.30;;;12.90;95.80;;;;;;5057128;28;20208;-80
2023/06/06 03:43:03;;;;;;;17.63;11.63;;;12.90;95.10;;;;;;5071661;28;20191;-81
2023/06/06 03:45:29;;;;;;;16.67;11.07;;;12.80;95.50;;;;;;5059161;28;20169;-78
2023/06/06 03:47:55;;;;;;;13.67;11.67;;;12.80;95.90;;;;;;5069816;28;20165;-78
2023/06/06 03:50:21;;;;;;;14.53;10.87;;;12.90;96.50;;;;;;5069522;28;20161;-79
2023/06/06 03:52:47;;;;;;;18.43;11.50;;;12.90;94.90;;;;;;5056132;28;20170;-80
2023/06/06 03:55:13;;;;;;;16.27;11.07;;;12.90;95.40;;;;;;5054905;28;20173;-80
2023/06/06 03:57:39;;;;;;;15.33;10.50;;;12.90;96.10;;;;;;5071137;28;20174;-80
2023/06/06 04:00:10;;;;;;;18.53;12.03;;;12.80;94.90;;;;;;5073152;28;20173;-80
2023/06/06 04:02:38;;;;;;;17.57;10.10;;;12.70;96.10;;;;;;5070806;28;20173;-78
2023/06/06 04:05:05;;;;;;;14.27;11.27;;;12.80;96.40;;;;;;5063623;28;20318;-79
2023/06/06 04:07:31;;;;;;;15.33;11.07;;;12.70;97.00;;;;;;5059899;28;20191;-80
2023/06/06 04:09:57;;;;;;;16.60;11.80;;;12.80;97.30;;;;;;5065641;28;20227;-78
2023/06/06 04:12:23;;;;;;;15.13;10.30;;;12.70;96.40;;;;;;5062235;28;20173;-80
2023/06/06 04:14:49;;;;;;;15.77;10.37;;;12.70;95.70;;;;;;5039021;28;20180;-79
2023/06/06 04:17:15;;;;;;;18.53;10.87;;;12.70;95.30;;;;;;5057906;28;20193;-79
2023/06/06 04:19:40;;;;;;;16.73;11.03;;;12.70;95.80;;;;;;5067953;28;20288;-78
2023/06/06 04:22:06;;;;;;;15.07;10.13;;;12.60;95.90;;;;;;5070523;28;20219;-80
2023/06/06 04:24:32;;;;;;;15.03;11.20;;;12.60;97.30;;;;;;5072341;28;20157;-80
2023/06/06 04:27:03;;;;;;;15.43;11.73;;;12.80;97.30;;;;;;5066519;28;20579;-79
2023/06/06 04:29:33;;;;;;;15.93;10.23;;;12.70;96.10;;;;;;5038480;28;20180;-80
2023/06/06 04:32:03;;;;;;;14.93;10.77;;;12.80;94.80;;;;;;5036108;28;20166;-81
2023/06/06 04:34:30;;;;;;;16.43;11.00;;;12.70;94.90;;;;;;5059637;28;20206;-79
2023/06/06 04:37:03;;;;;;;15.67;10.63;;;12.70;93.90;;;;;;5053925;28;20180;-81
2023/06/06 04:39:33;;;;;;;15.30;10.10;;;12.70;94.20;;;;;;5036151;28;20176;-79
2023/06/06 04:42:05;;;;;;;14.87;10.07;;;12.60;95.20;;;;;;5057427;28;20213;-80
2023/06/06 04:44:32;;;;;;;14.17;10.53;;;12.60;95.70;;;;;;5065263;28;20162;-81
2023/06/06 04:47:03;;;;;;;17.30;11.30;;;12.70;96.10;;;;;;5054315;28;20162;-80
2023/06/06 04:49:30;;;;;;;14.90;10.20;;;12.70;96.50;;;;;;5054841;28;20193;-81
2023/06/06 04:51:59;;;;;;;16.50;11.17;;;12.70;94.70;;;;;;5053026;28;20242;-81
2023/06/06 04:54:25;;;;;;;16.30;11.10;;;12.60;94.60;;;;;;5054496;28;20177;-81
2023/06/06 04:56:51;;;;;;;15.50;10.50;;;12.70;94.50;;;;;;5054537;28;20180;-81
2023/06/06 04:59:21;;;;;;;16.93;10.73;;;12.70;93.20;;;;;;5054022;28;20259;-82
2023/06/06 05:01:47;;;;;;;18.27;10.97;;;12.60;93.30;;;;;;5039194;28;20592;-81
2023/06/06 05:04:13;;;;;;;16.77;10.97;;;12.70;94.10;;;;;;5053199;28;20174;-81
2023/06/06 05:06:40;;;;;;;15.80;10.97;;;12.80;92.50;;;;;;5072224;28;20222;-81
2023/06/06 05:09:07;;;;;;;15.47;10.80;;;12.90;90.50;;;;;;5061327;28;20165;-82
2023/06/06 05:11:35;;;;;;;17.03;10.27;;;12.80;89.20;;;;;;5052315;28;20257;-81
2023/06/06 05:14:01;;;;;;;14.20;10.90;;;12.70;88.40;;;;;;5053406;28;20215;-80
2023/06/06 05:16:26;;;;;;;14.37;10.60;;;12.80;90.10;;;;;;5053361;28;20177;-80
2023/06/06 05:18:52;;;;;;;16.07;10.97;;;12.80;89.00;;;;;;5034714;28;20198;-81
2023/06/06 05:21:19;;;;;;;14.50;10.00;;;12.80;84.10;;;;;;5034864;28;20212;-81
2023/06/06 05:23:45;;;;;;;19.03;11.87;;;12.90;82.30;;;;;;5053361;28;20173;-79
2023/06/06 05:26:10;;;;;;;15.50;10.73;;;12.80;83.00;;;;;;5055248;28;20180;-81
2023/06/06 05:28:38;;;;;;;18.60;10.73;;;13.00;81.40;;;;;;5035856;28;20275;-81
2023/06/06 05:31:07;;;;;;;18.20;11.70;;;12.90;78.60;;;;;;5053812;28;20220;-81
2023/06/06 05:33:33;;;;;;;20.20;11.57;;;12.90;79.70;;;;;;5055906;28;20196;-79
2023/06/06 05:36:00;;;;;;;17.50;11.17;;;13.00;80.00;;;;;;5055392;28;20161;-80
2023/06/06 05:38:26;;;;;;;18.77;10.77;;;13.00;76.40;;;;;;5036567;28;20169;-81
2023/06/06 05:40:52;;;;;;;15.03;11.03;;;13.10;78.70;;;;;;5052789;28;20212;-81
2023/06/06 05:43:17;;;;;;;17.10;11.30;;;13.20;73.50;;;;;;5051893;28;20173;-81
2023/06/06 05:45:44;;;;;;;18.57;10.93;;;13.10;67.80;;;;;;5053403;28;20719;-82
2023/06/06 05:48:10;;;;;;;18.83;11.63;;;13.20;65.60;;;;;;5053964;28;20660;-82
2023/06/06 05:50:36;;;;;;;20.87;10.47;;;13.30;64.50;;;;;;5054519;28;20169;-83
2023/06/06 05:53:02;;;;;;;16.60;10.87;;;13.30;56.70;;;;;;5044369;28;20264;-82
2023/06/06 05:55:35;;;;;;;15.43;11.03;;;13.30;60.70;;;;;;5036895;28;20195;-85
2023/06/06 05:58:03;;;;;;;14.87;9.43;;;13.40;59.60;;;;;;5036948;28;20181;-82
2023/06/06 06:00:31;;;;;;;17.30;11.47;;;13.40;54.00;;;;;;5053972;28;20288;-79
2023/06/06 06:02:58;;;;;;;15.87;10.40;;;13.30;55.70;;;;;;5053257;28;20588;-82
2023/06/06 06:05:28;;;;;;;15.97;10.97;;;13.50;57.30;;;;;;5053640;28;20641;-82
2023/06/06 06:07:59;;;;;;;15.57;11.40;;;13.50;51.70;;;;;;5055987;28;20165;-81
2023/06/06 06:10:32;;;;;;;19.27;11.03;;;13.60;49.70;;;;;;5057105;28;20198;-79
2023/06/06 06:12:59;;;;;;;16.07;11.77;;;13.60;50.10;;;;;;5057601;28;20689;-82
2023/06/06 06:15:25;;;;;;;15.70;11.17;;;13.50;47.60;;;;;;5066724;28;20176;-82
2023/06/06 06:17:51;;;;;;;18.27;10.80;;;13.60;46.80;;;;;;5063155;28;20181;-83
2023/06/06 06:20:17;;;;;;;14.93;11.63;;;13.60;46.00;;;;;;5041435;28;20193;-81
2023/06/06 06:22:43;;;;;;;20.23;12.27;;;13.70;44.70;;;;;;5059714;28;20197;-82
2023/06/06 06:25:13;;;;;;;18.07;11.70;;;13.90;40.60;;;;;;5040412;28;20585;-79
2023/06/06 06:27:42;;;;;;;17.57;10.93;;;14.00;35.50;;;;;;5056612;28;20204;-80
2023/06/06 06:30:09;;;;;;;16.50;10.57;;;13.90;31.90;;;;;;5039379;28;20164;-84
2023/06/06 06:32:38;;;;;;;15.47;11.23;;;14.00;33.90;;;;;;5041078;28;20584;-80
2023/06/06 06:35:05;;;;;;;15.83;10.90;;;14.00;33.40;;;;;;5058495;28;20188;-80
2023/06/06 06:37:31;;;;;;;15.57;11.57;;;13.90;30.40;;;;;;5038301;28;20269;-79
2023/06/06 06:40:00;;;;;;;17.03;11.23;;;14.00;32.70;;;;;;5038279;28;20306;-78
2023/06/06 06:42:26;;;;;;;16.37;10.63;;;14.20;33.60;;;;;;5059361;28;20272;-79
2023/06/06 06:44:52;;;;;;;20.43;11.33;;;14.30;26.00;;;;;;5045570;28;20196;-81
2023/06/06 06:47:19;;;;;;;18.40;11.13;;;14.40;21.80;;;;;;5038905;28;20174;-80
2023/06/06 06:49:45;;;;;;;19.33;12.27;;;14.50;22.20;;;;;;5051297;28;20172;-80
2023/06/06 06:52:11;;;;;;;15.60;11.07;;;14.60;16.90;;;;;;5056337;28;20195;-80
2023/06/06 06:54:58;;;;;;;18.00;11.47;;;14.40;18.20;;;;;;5052917;28;20158;-80
2023/06/06 06:57:26;;;;;;;15.93;10.33;;;14.40;24.90;;;;;;5061469;28;20187;-82
2023/06/06 07:00:00;;;;;;;17.40;11.40;;;14.50;22.80;;;;;;5042877;28;20196;-81
2023/06/06 07:02:27;;;;;;;18.73;10.43;;;14.50;19.10;;;;;;5037729;28;20717;-79
2023/06/06 07:04:54;;;;;;;18.47;12.07;;;14.50;24.50;;;;;;5017936;28;20181;-81
2023/06/06 07:07:24;;;;;;;20.37;11.17;;;14.60;24.90;;;;;;5017948;28;20172;-80
2023/06/06 07:09:51;;;;;;;15.73;11.40;;;14.70;15.30;;;;;;5018505;28;20342;-80
2023/06/06 07:12:17;;;;;;;16.07;10.63;;;14.70;17.50;;;;;;5038165;28;20181;-83
2023/06/06 07:14:43;;;;;;;15.47;10.93;;;14.70;16.10;;;;;;5027179;28;20185;-81
2023/06/06 07:17:09;;;;;;;20.80;11.83;;;14.80;14.90;;;;;;5055464;28;20196;-81
2023/06/06 07:19:36;;;;;;;17.20;12.03;;;14.80;12.80;;;;;;5057084;28;20303;-81
2023/06/06 07:22:05;;;;;;;21.27;12.53;;;15.00;13.20;;;;;;5056823;28;20215;-81
2023/06/06 07:24:32;;;;;;;16.50;11.30;;;15.20;3.10;;;;;;5055197;28;20169;-79
2023/06/06 07:26:59;;;;;;;16.53;12.33;;;15.00;3.50;;;;;;5058240;28;20272;-81
2023/06/06 07:29:26;;;;;;;17.47;11.60;;;15.10;1.00;;;;;;5059658;28;20168;-80
2023/06/06 07:31:54;;;;;;;17.17;11.47;;;15.10;4.60;;;;;;5057595;28;20268;-79
2023/06/06 07:34:20;;;;;;;17.47;11.70;;;15.10;4.50;;;;;;5037845;28;20711;-80
2023/06/06 07:36:46;;;;;;;17.40;10.57;;;15.00;4.90;;;;;;5056706;28;20169;-81
2023/06/06 07:39:19;;;;;;;19.70;11.60;;;15.10;6.00;;;;;;5055605;28;20535;-79
2023/06/06 07:41:47;;;;;;;14.83;11.60;;;15.20;4.40;;;;;;5057249;28;20192;-79
2023/06/06 07:44:16;;;;;;;16.20;11.50;;;15.30;1.20;;;;;;5054040;28;20166;-81
2023/06/06 07:46:47;;;;;;;17.60;12.47;;;15.30;1.00;;;;;;5035469;28;20158;-79
2023/06/06 07:49:13;;;;;;;23.23;12.03;;;15.40;1.00;;;;;;5037295;28;20178;-79
2023/06/06 07:51:38;;;;;;;16.70;12.63;;;15.60;1.00;;;;;;5036121;28;20184;-79
2023/06/06 07:54:05;;;;;;;14.20;11.20;;;15.70;1.00;;;;;;5035900;28;20666;-81
2023/06/06 07:56:36;;;;;;;17.07;11.77;;;15.90;1.00;;;;;;5035649;28;20232;-79
2023/06/06 07:59:02;;;;;;;23.50;11.97;;;15.90;1.00;;;;;;5047844;28;20253;-83
2023/06/06 08:01:29;;;;;;;18.53;11.33;;;16.10;1.00;;;;;;5048574;28;20205;-81
2023/06/06 08:03:55;;;;;;;15.60;11.83;;;16.10;1.00;;;;;;5055990;28;20251;-81
2023/06/06 08:06:23;;;;;;;18.83;11.30;;;16.10;1.00;;;;;;5037833;28;20625;-84
2023/06/06 08:08:49;;;;;;;18.10;12.77;;;16.10;1.00;;;;;;5059919;28;20255;-82
2023/06/06 08:11:17;;;;;;;15.57;11.67;;;16.20;1.00;;;;;;5041178;28;20208;-81
2023/06/06 08:13:43;;;;;;;17.97;11.37;;;16.20;1.00;;;;;;5056029;28;20383;-79
2023/06/06 08:16:09;;;;;;;15.63;12.20;;;16.30;1.00;;;;;;5039284;28;20181;-80
2023/06/06 08:18:37;;;;;;;18.07;11.70;;;16.30;1.00;;;;;;5056323;28;20207;-80
2023/06/06 08:21:03;;;;;;;17.80;12.30;;;16.30;1.00;;;;;;5055927;28;20627;-79
2023/06/06 08:23:29;;;;;;;18.63;12.10;;;16.40;1.00;;;;;;5056207;28;20161;-81
2023/06/06 08:25:57;;;;;;;18.60;11.60;;;16.60;1.00;;;;;;5058529;28;20205;-79
2023/06/06 08:28:23;;;;;;;16.63;12.07;;;16.70;1.00;;;;;;5055074;28;20169;-82
2023/06/06 08:30:52;;;;;;;17.47;11.90;;;16.80;1.00;;;;;;5056453;28;20173;-81
2023/06/06 08:33:19;;;;;;;16.23;12.03;;;16.90;1.00;;;;;;5036805;28;20541;-79
2023/06/06 08:35:46;;;;;;;14.83;11.57;;;17.00;1.00;;;;;;5054770;28;20175;-79
2023/06/06 08:38:12;;;;;;;13.07;11.07;;;17.00;1.00;;;;;;5054845;28;20184;-81
2023/06/06 08:40:38;;;;;;;18.47;12.33;;;16.90;1.00;;;;;;5037770;28;20214;-81
2023/06/06 08:43:06;;;;;;;15.67;11.40;;;16.90;1.00;;;;;;5054380;28;20252;-81
2023/06/06 08:45:32;;;;;;;16.80;12.03;;;17.00;1.00;;;;;;5046086;28;20184;-80
2023/06/06 08:47:58;;;;;;;18.03;11.63;;;17.10;1.00;;;;;;5050349;28;20177;-80
2023/06/06 08:50:26;;;;;;;18.30;11.93;;;17.20;1.00;;;;;;5036643;28;20181;-79
2023/06/06 08:52:52;;;;;;;15.20;11.40;;;17.20;1.00;;;;;;5054021;28;20169;-80
2023/06/06 08:55:19;;;;;;;16.77;12.13;;;17.10;1.00;;;;;;5036513;28;20175;-78
2023/06/06 08:57:47;;;;;;;20.10;13.33;;;17.30;1.00;;;;;;5057422;28;20176;-81
2023/06/06 09:00:21;;;;;;;18.97;11.87;;;17.30;1.00;;;;;;5056092;28;20195;-80
2023/06/06 09:02:48;;;;;;;16.50;11.73;;;17.40;1.00;;;;;;5058015;28;20176;-80
2023/06/06 09:05:17;;;;;;;19.27;12.67;;;17.60;1.00;;;;;;5038293;28;20173;-78
2023/06/06 09:07:43;;;;;;;16.03;10.73;;;17.70;1.00;;;;;;5058857;28;20177;-81
2023/06/06 09:10:10;;;;;;;16.73;12.23;;;17.90;1.00;;;;;;5050299;28;20178;-79
2023/06/06 09:12:43;;;;;;;16.60;11.50;;;17.90;1.00;;;;;;5069864;28;20153;-78
2023/06/06 09:15:10;;;;;;;21.70;12.43;;;18.00;1.00;;;;;;5051115;28;20185;-80
2023/06/06 09:17:39;;;;;;;16.77;11.50;;;18.00;1.00;;;;;;5050022;28;20192;-80
2023/06/06 09:20:07;;;;;;;15.67;12.87;;;18.10;1.00;;;;;;5068756;28;20161;-80
2023/06/06 09:22:40;;;;;;;14.97;12.03;;;18.10;1.00;;;;;;5065543;28;20187;-81
2023/06/06 09:25:20;;;;;;;18.13;12.27;;;18.10;1.00;;;;;;5067485;28;20599;-79
2023/06/06 09:27:46;;;;;;;15.07;11.53;;;18.10;1.00;;;;;;5069753;28;20183;-78
2023/06/06 09:30:26;;;;;;;18.00;11.90;;;18.20;1.00;;;;;;5060975;28;20178;-80
2023/06/06 09:33:00;;;;;;;16.37;12.23;;;18.20;1.00;;;;;;5056773;28;20165;-81
2023/06/06 09:35:43;;;;;;;15.37;11.47;;;18.30;1.00;;;;;;5059054;28;20176;-80
2023/06/06 09:38:16;;;;;;;15.70;12.23;;;18.50;1.00;;;;;;5069562;28;20219;-81
2023/06/06 09:40:46;;;;;;;14.93;12.83;;;18.60;1.00;;;;;;5055762;28;20205;-79
2023/06/06 09:43:15;;;;;;;19.03;11.93;;;18.80;1.00;;;;;;5058421;28;20165;-80
2023/06/06 09:45:51;;;;;;;14.53;11.07;;;18.90;1.00;;;;;;5072178;28;20228;-80
2023/06/06 09:48:29;;;;;;;15.87;10.80;;;19.00;1.00;;;;;;5053369;28;20205;-79
2023/06/06 09:50:57;;;;;;;17.00;11.63;;;19.00;1.00;;;;;;5059427;28;20213;-79
2023/06/06 09:53:24;;;;;;;17.77;12.13;;;19.10;1.00;;;;;;5061081;28;20240;-79
2023/06/06 09:55:50;;;;;;;14.63;11.43;;;19.30;1.00;;;;;;5066969;28;20166;-80
2023/06/06 09:58:19;;;;;;;14.43;10.97;;;19.50;1.00;;;;;;5072191;28;20262;-80
2023/06/06 10:00:47;;;;;;;16.80;11.90;;;19.60;1.00;;;;;;5058572;28;20269;-81
2023/06/06 10:03:18;;;;;;;16.37;12.03;;;19.50;1.00;;;;;;5050289;28;20675;-79
2023/06/06 10:05:53;;;;;;;15.70;11.47;;;19.50;1.00;;;;;;5048794;28;20254;-79
2023/06/06 10:08:21;;;;;;;15.57;11.23;;;19.70;1.00;;;;;;5057483;28;20172;-80
2023/06/06 10:10:49;;;;;;;15.17;11.53;;;19.60;1.00;;;;;;5056621;28;20172;-80
2023/06/06 10:13:17;;;;;;;14.33;11.70;;;19.50;1.00;;;;;;5039685;28;20170;-79
2023/06/06 10:15:44;;;;;;;18.13;11.93;;;19.70;1.00;;;;;;5056837;28;20600;-80
2023/06/06 10:18:09;;;;;;;17.53;11.53;;;20.00;1.00;;;;;;5039206;28;20659;-80
2023/06/06 10:20:36;;;;;;;14.20;11.27;;;20.10;1.00;;;;;;5056958;28;20214;-81
2023/06/06 10:23:03;;;;;;;15.10;12.07;;;19.90;1.00;;;;;;5039361;28;20179;-79
2023/06/06 10:25:30;;;;;;;16.37;10.93;;;19.80;1.00;;;;;;5056809;28;20262;-79
2023/06/06 10:28:06;;;;;;;14.80;10.90;;;19.90;1.00;;;;;;5039229;28;20277;-79
2023/06/06 10:30:50;;;;;;;17.23;11.07;;;20.10;1.00;;;;;;5059643;28;20171;-80
2023/06/06 10:33:43;;;;;;;15.60;10.10;;;20.40;1.00;;;;;;5056735;28;20157;-81
2023/06/06 10:36:13;;;;;;;16.40;10.93;;;20.40;1.00;;;;;;5056353;28;20513;-79
2023/06/06 10:38:39;;;;;;;12.70;10.60;;;20.30;1.00;;;;;;5038934;28;20222;-80
2023/06/06 10:41:18;;;;;;;15.53;10.77;;;20.30;1.00;;;;;;5040290;28;20218;-80
2023/06/06 10:43:46;;;;;;;12.80;9.83;;;20.50;1.00;;;;;;5043095;28;20176;-82
2023/06/06 10:46:12;;;;;;;15.40;10.57;;;20.50;1.00;;;;;;5045811;28;20200;-80
2023/06/06 10:48:55;;;;;;;15.83;9.87;;;20.60;1.00;;;;;;5037718;28;20175;-81
2023/06/06 10:51:36;;;;;;;14.90;11.03;;;20.60;1.00;;;;;;5035877;28;20175;-80
2023/06/06 10:54:21;;;;;;;15.53;11.37;;;20.60;1.00;;;;;;5036428;28;20154;-81
2023/06/06 10:56:52;;;;;;;14.07;10.37;;;20.70;1.00;;;;;;5037752;28;20657;-78
2023/06/06 10:59:27;;;;;;;15.57;10.80;;;20.90;1.00;;;;;;5036827;28;20198;-80
2023/06/06 11:01:56;;;;;;;16.27;10.67;;;20.90;1.00;;;;;;5037660;28;20207;-80
2023/06/06 11:04:26;;;;;;;16.33;10.37;;;20.90;1.00;;;;;;5036249;28;20154;-81
2023/06/06 11:06:58;;;;;;;13.83;9.23;;;21.00;1.00;;;;;;5036442;28;20162;-81
2023/06/06 11:09:31;;;;;;;12.27;9.97;;;21.00;1.00;;;;;;5036594;28;20180;-80
2023/06/06 11:12:11;;;;;;;15.30;10.90;;;21.10;1.00;;;;;;5036082;28;20235;-80
2023/06/06 11:14:55;;;;;;;14.17;9.90;;;21.30;1.00;;;;;;5034287;28;20180;-79
2023/06/06 11:17:27;;;;;;;13.83;10.40;;;21.40;1.00;;;;;;5035393;28;20184;-82
2023/06/06 11:19:56;;;;;;;12.60;10.03;;;21.60;1.00;;;;;;5035840;28;20188;-80
2023/06/06 11:22:26;;;;;;;13.03;10.13;;;21.50;1.00;;;;;;5034596;28;20206;-81
2023/06/06 11:24:55;;;;;;;13.17;10.07;;;21.40;1.00;;;;;;5036331;28;20728;-81
2023/06/06 11:27:21;;;;;;;12.67;9.03;;;21.50;1.00;;;;;;5036023;28;20189;-81
2023/06/06 11:29:47;;;;;;;12.57;10.20;;;21.60;1.00;;;;;;5036854;28;20170;-79
2023/06/06 11:32:14;;;;;;;22.13;11.07;;;21.80;1.00;;;;;;5036000;28;20631;-81
2023/06/06 11:34:40;;;;;;;11.37;8.83;;;21.90;1.00;;;;;;5041697;28;20189;-81
2023/06/06 11:37:08;;;;;;;14.83;9.10;;;22.00;1.00;;;;;;5023447;28;20634;-81
2023/06/06 11:39:34;;;;;;;12.67;9.17;;;22.10;1.00;;;;;;5018430;28;20183;-82
2023/06/06 11:42:00;;;;;;;13.27;9.20;;;22.30;1.00;;;;;;5035422;28;20809;-79
2023/06/06 11:44:35;;;;;;;12.47;9.13;;;22.40;1.00;;;;;;5017873;28;20180;-80
2023/06/06 11:47:08;;;;;;;11.80;8.90;;;22.40;99.90;;;;;;5050009;28;20265;-80
2023/06/06 11:49:45;;;;;;;12.47;8.43;;;22.30;99.90;;;;;;5055797;28;20167;-79
2023/06/06 11:52:11;;;;;;;13.33;8.80;;;22.20;99.90;;;;;;5055814;28;20292;-81
2023/06/06 11:54:38;;;;;;;14.20;9.60;;;22.20;99.90;;;;;;5061739;28;20688;-79
2023/06/06 11:57:07;;;;;;;13.53;9.00;;;22.30;99.90;;;;;;5076920;28;20170;-79
2023/06/06 11:59:34;;;;;;;13.30;8.10;;;22.40;99.90;;;;;;5075702;28;20206;-80
2023/06/06 12:02:01;;;;;;;10.97;7.57;;;22.60;99.90;;;;;;5052737;28;20225;-80
2023/06/06 12:04:28;;;;;;;13.60;8.83;;;22.70;99.90;;;;;;5057056;28;20253;-81
2023/06/06 12:07:03;;;;;;;13.20;7.70;;;22.50;99.90;;;;;;5037376;28;20279;-80
2023/06/06 12:09:32;;;;;;;9.80;7.77;;;22.50;99.90;;;;;;5037334;28;20512;-81
2023/06/06 12:12:04;;;;;;;10.03;7.23;;;22.70;99.90;;;;;;5036625;28;20168;-80
2023/06/06 12:14:33;;;;;;;13.20;8.00;;;22.60;99.90;;;;;;5055534;28;20580;-81
2023/06/06 12:17:03;;;;;;;10.17;7.67;;;22.60;99.90;;;;;;5054899;28;20167;-80
2023/06/06 12:19:29;;;;;;;12.30;7.70;;;22.60;99.90;;;;;;5055070;28;20186;-80
2023/06/06 12:21:55;;;;;;;12.23;8.20;;;22.80;99.90;;;;;;5055028;28;20625;-81
2023/06/06 12:24:23;;;;;;;11.87;7.30;;;22.70;99.90;;;;;;5037709;28;20178;-81
2023/06/06 12:26:55;;;;;;;11.93;7.60;;;22.90;99.90;;;;;;5053131;28;20208;-80
2023/06/06 12:29:30;;;;;;;10.70;7.60;;;23.10;99.90;;;;;;5052468;28;20159;-77
2023/06/06 12:32:23;;;;;;;12.03;8.30;;;23.10;99.90;;;;;;5057750;28;20172;-79
2023/06/06 12:35:01;;;;;;;13.40;7.63;;;23.20;99.90;;;;;;5058323;28;20236;-80
2023/06/06 12:37:36;;;;;;;11.80;7.83;;;23.30;99.90;;;;;;5056373;28;20185;-80
2023/06/06 12:40:09;;;;;;;8.37;6.53;;;23.40;99.90;;;;;;5056090;28;20170;-79